createdAt,value
2017-01-05T00:00:04.302Z,0.8
2017-01-05T00:05:04.316Z,0.8
2017-01-05T00:10:04.268Z,0.8
2017-01-05T00:15:04.172Z,0.6
2017-01-05T00:20:04.025Z,0.6
2017-01-05T00:25:04.831Z,0.6
2017-01-05T00:30:04.962Z,0.6
2017-01-05T00:35:04.944Z,0.6
2017-01-05T00:40:04.016Z,0.7
2017-01-05T00:45:04.013Z,0.7
2017-01-05T00:50:04.863Z,0.7
2017-01-05T00:55:04.852Z,0.6
2017-01-05T01:00:05.075Z,0.7
2017-01-05T01:05:04.922Z,0.8
2017-01-05T01:10:04.917Z,1.1
2017-01-05T01:15:04.832Z,1.1
2017-01-05T01:20:04.959Z,1.1
2017-01-05T01:25:03.977Z,1.1
2017-01-05T01:30:04.013Z,1.1
2017-01-05T01:35:04.864Z,1.2
2017-01-05T01:40:04.208Z,1.2
2017-01-05T01:45:04.154Z,1.2
2017-01-05T01:50:04.326Z,1.2
2017-01-05T01:55:04.144Z,1.6
2017-01-05T02:00:04.058Z,1.6
2017-01-05T02:05:04.890Z,1.6
2017-01-05T02:10:04.478Z,2.0
2017-01-05T02:15:04.252Z,2.0
2017-01-05T02:20:04.239Z,2.0
2017-01-05T02:25:04.033Z,2.0
2017-01-05T02:30:04.194Z,1.8
2017-01-05T02:35:04.339Z,2.0
2017-01-05T02:40:04.535Z,2.0
2017-01-05T02:45:04.325Z,1.8
2017-01-05T02:50:04.006Z,1.8
2017-01-05T02:55:04.024Z,1.7
2017-01-05T03:00:05.390Z,1.6
2017-01-05T03:05:09.206Z,1.6
2017-01-05T03:10:03.895Z,1.3
2017-01-05T03:15:04.901Z,1.1
2017-01-05T03:20:04.846Z,0.8
2017-01-05T03:25:04.742Z,0.7
2017-01-05T03:30:04.605Z,0.6
2017-01-05T03:35:04.585Z,0.6
2017-01-05T03:40:04.687Z,0.7
2017-01-05T03:45:04.691Z,0.7
2017-01-05T03:50:04.789Z,0.6
2017-01-05T03:55:04.921Z,0.7
2017-01-05T04:00:05.325Z,0.8
2017-01-05T04:05:06.067Z,1.2
2017-01-05T04:10:04.761Z,1.2
2017-01-05T04:15:04.731Z,0.8
2017-01-05T04:20:04.756Z,0.7
2017-01-05T04:25:04.643Z,0.6
2017-01-05T04:30:04.939Z,0.6
2017-01-05T04:35:04.759Z,0.4
2017-01-05T04:40:05.035Z,0.3
2017-01-05T04:45:04.071Z,0.4
2017-01-05T04:50:04.112Z,0.7
2017-01-05T04:55:04.874Z,0.8
2017-01-05T05:00:03.925Z,0.6
2017-01-05T05:05:04.770Z,0.4
2017-01-05T05:10:04.818Z,0.3
2017-01-05T05:15:04.712Z,0.3
2017-01-05T05:20:04.649Z,0.1
2017-01-05T05:25:04.527Z,0.0
2017-01-05T05:30:04.387Z,0.0
2017-01-05T05:35:04.388Z,0.1
2017-01-05T05:40:04.603Z,0.1
2017-01-05T05:45:04.657Z,0.1
2017-01-05T05:50:04.647Z,0.0
2017-01-05T05:55:04.682Z,-0.3
2017-01-05T06:00:04.335Z,-0.3
2017-01-05T06:05:04.168Z,-0.3
2017-01-05T06:10:04.406Z,-0.5
2017-01-05T06:15:04.187Z,-0.5
2017-01-05T06:20:04.015Z,-0.6
2017-01-05T06:25:04.178Z,-0.5
2017-01-05T06:30:04.341Z,-0.6
2017-01-05T06:35:04.525Z,-0.6
2017-01-05T06:40:04.930Z,-0.6
2017-01-05T06:45:03.983Z,-0.6
2017-01-05T06:50:04.807Z,-0.5
2017-01-05T06:55:04.719Z,-0.6
2017-01-05T07:00:04.746Z,-0.6
2017-01-05T07:05:04.618Z,-0.6
2017-01-05T07:10:04.808Z,-0.6
2017-01-05T07:15:04.406Z,-0.8
2017-01-05T07:20:04.260Z,-0.8
2017-01-05T07:25:04.919Z,-0.8
2017-01-05T07:30:04.969Z,-0.8
2017-01-05T07:35:04.731Z,-0.8
2017-01-05T07:40:04.859Z,-0.6
2017-01-05T07:45:04.771Z,-0.6
2017-01-05T07:50:04.773Z,-0.8
2017-01-05T07:55:04.710Z,-0.6
2017-01-05T08:00:04.863Z,-0.6
2017-01-05T08:05:04.068Z,-0.6
2017-01-05T08:10:04.309Z,-0.5
2017-01-05T08:15:04.123Z,-0.5
2017-01-05T08:20:03.883Z,-0.5
2017-01-05T08:25:04.916Z,-0.5
2017-01-05T08:30:05.015Z,-0.3
2017-01-05T08:35:04.096Z,-0.3
2017-01-05T08:40:04.173Z,-0.3
2017-01-05T08:45:04.045Z,-0.5
2017-01-05T08:50:04.137Z,-0.5
2017-01-05T08:55:03.909Z,-0.5
2017-01-05T09:00:04.006Z,-0.5
2017-01-05T09:05:03.968Z,1.8
2017-01-05T09:10:04.104Z,2.4
2017-01-05T09:15:04.311Z,3.0
2017-01-05T09:20:04.125Z,2.7
2017-01-05T09:25:04.047Z,2.7
2017-01-05T09:30:04.192Z,3.0
2017-01-05T09:35:04.311Z,3.5
2017-01-05T09:40:04.604Z,3.5
2017-01-05T09:45:04.760Z,4.0
2017-01-05T09:50:04.876Z,3.5
2017-01-05T09:55:03.979Z,3.0
2017-01-05T10:00:04.068Z,3.2
2017-01-05T10:05:04.008Z,3.2
2017-01-05T10:10:04.221Z,3.2
2017-01-05T10:15:04.353Z,3.5
2017-01-05T10:20:04.281Z,3.2
2017-01-05T10:25:04.218Z,2.5
2017-01-05T10:30:04.213Z,2.7
2017-01-05T10:35:04.372Z,2.9
2017-01-05T10:40:04.545Z,2.7
2017-01-05T10:45:04.678Z,2.7
2017-01-05T10:50:04.765Z,2.2
2017-01-05T10:55:04.751Z,2.2
2017-01-05T11:00:04.815Z,2.2
2017-01-05T11:05:04.679Z,2.7
2017-01-05T11:10:04.834Z,2.7
2017-01-05T11:15:04.740Z,2.2
2017-01-05T11:20:04.836Z,2.5
2017-01-05T11:25:04.754Z,2.0
2017-01-05T11:30:04.657Z,1.8
2017-01-05T11:35:04.529Z,2.2
2017-01-05T11:40:04.646Z,2.0
2017-01-05T11:45:04.364Z,1.6
2017-01-05T11:50:04.304Z,1.6
2017-01-05T11:55:04.493Z,2.2
2017-01-05T12:00:04.370Z,2.0
2017-01-05T12:05:04.297Z,2.0
2017-01-05T12:10:04.318Z,1.7
2017-01-05T12:15:04.218Z,1.7
2017-01-05T12:20:04.104Z,1.6
2017-01-05T12:25:03.937Z,1.6
2017-01-05T12:30:04.869Z,1.3
2017-01-05T12:35:04.794Z,1.3
2017-01-05T12:40:04.233Z,1.2
2017-01-05T12:45:04.247Z,1.3
2017-01-05T12:50:04.037Z,1.6
2017-01-05T12:55:03.810Z,1.6
2017-01-05T13:00:04.945Z,1.7
2017-01-05T13:05:03.962Z,1.7
2017-01-05T13:10:03.987Z,1.3
2017-01-05T13:15:03.921Z,1.3
2017-01-05T13:20:04.035Z,1.3
2017-01-05T13:25:04.808Z,1.6
2017-01-05T13:30:04.636Z,1.3
2017-01-05T13:35:04.666Z,1.2
2017-01-05T13:40:04.916Z,1.1
2017-01-05T13:45:04.546Z,0.8
2017-01-05T13:50:04.284Z,0.7
2017-01-05T13:55:04.301Z,0.6
2017-01-05T14:00:04.004Z,0.4
2017-01-05T14:05:04.764Z,0.4
2017-01-05T14:10:04.882Z,0.4
2017-01-05T14:15:04.770Z,0.7
2017-01-05T14:20:04.815Z,1.1
2017-01-05T14:25:04.607Z,0.6
2017-01-05T14:30:04.583Z,0.4
2017-01-05T14:35:04.310Z,0.4
2017-01-05T14:40:04.447Z,0.3
2017-01-05T14:45:04.541Z,0.3
2017-01-05T14:50:04.537Z,0.1
2017-01-05T14:55:04.475Z,0.1
2017-01-05T15:00:04.268Z,0.1
2017-01-05T15:05:04.097Z,0.1
2017-01-05T15:10:04.407Z,0.0
2017-01-05T15:15:04.321Z,-0.5
2017-01-05T15:20:04.120Z,-0.5
2017-01-05T15:25:04.268Z,-0.5
2017-01-05T15:30:04.261Z,-0.6
2017-01-05T15:35:03.985Z,-0.6
2017-01-05T15:40:04.296Z,-0.6
2017-01-05T15:45:04.481Z,-0.8
2017-01-05T15:50:04.398Z,-0.8
2017-01-05T15:55:04.273Z,-1.1
2017-01-05T16:00:04.278Z,-1.1
2017-01-05T16:05:04.226Z,-1.1
2017-01-05T16:10:04.244Z,-1.2
2017-01-05T16:15:04.372Z,-1.5
2017-01-05T16:20:04.318Z,-1.7
2017-01-05T16:25:04.381Z,-1.8
2017-01-05T16:30:04.286Z,-1.8
2017-01-05T16:35:04.202Z,-1.8
2017-01-05T16:40:04.544Z,-2.0
2017-01-05T16:45:04.347Z,-2.0
2017-01-05T16:50:04.378Z,-2.0
2017-01-05T16:55:04.490Z,-1.8
2017-01-05T17:00:04.356Z,-1.8
2017-01-05T17:05:03.979Z,-2.0
2017-01-05T17:10:04.164Z,-2.0
2017-01-05T17:15:04.271Z,-2.2
2017-01-05T17:20:04.050Z,-2.2
2017-01-05T17:25:03.909Z,-2.5
2017-01-05T17:30:05.080Z,-2.5
2017-01-05T17:35:04.139Z,-2.5
2017-01-05T17:40:04.363Z,-2.5
2017-01-05T17:45:04.145Z,-2.5
2017-01-05T17:50:04.139Z,-2.7
2017-01-05T17:55:03.995Z,-2.9
2017-01-05T18:00:03.981Z,-2.9
2017-01-05T18:05:04.960Z,-2.9
2017-01-05T18:10:04.018Z,-2.9
2017-01-05T18:15:04.117Z,-2.9
2017-01-05T18:20:04.043Z,-2.9
2017-01-05T18:25:04.242Z,-2.7
2017-01-05T18:30:04.279Z,-2.7
2017-01-05T18:35:03.931Z,-2.9
2017-01-05T18:40:04.071Z,-3.0
2017-01-05T18:45:04.061Z,-3.0
2017-01-05T18:50:04.177Z,-3.0
2017-01-05T18:55:03.922Z,-3.0
2017-01-05T19:00:04.030Z,-3.0
2017-01-05T19:05:03.929Z,-3.2
2017-01-05T19:10:04.319Z,-3.7
2017-01-05T19:15:04.488Z,-3.5
2017-01-05T19:20:04.292Z,-3.5
2017-01-05T19:25:04.335Z,-3.7
2017-01-05T19:30:04.173Z,-3.9
2017-01-05T19:35:04.270Z,-3.7
2017-01-05T19:40:04.455Z,-3.9
2017-01-05T19:45:04.446Z,-3.5
2017-01-05T19:50:04.286Z,-3.5
2017-01-05T19:55:04.362Z,-3.7
2017-01-05T20:00:04.237Z,-3.9
2017-01-05T20:05:04.300Z,-4.0
2017-01-05T20:10:04.612Z,-4.0
2017-01-05T20:15:04.513Z,-4.0
2017-01-05T20:20:04.196Z,-4.0
2017-01-05T20:25:03.983Z,-4.0
2017-01-05T20:30:05.116Z,-4.0
2017-01-05T20:35:04.092Z,-4.0
2017-01-05T20:40:04.374Z,-4.3
2017-01-05T20:45:04.527Z,-4.3
2017-01-05T20:50:04.323Z,-4.0
2017-01-05T20:55:04.327Z,-4.3
2017-01-05T21:00:04.402Z,-4.0
2017-01-05T21:05:04.136Z,-4.0
2017-01-05T21:10:04.321Z,-4.5
2017-01-05T21:15:04.078Z,-4.5
2017-01-05T21:20:04.107Z,-4.5
2017-01-05T21:25:04.915Z,-4.5
2017-01-05T21:30:03.966Z,-4.5
2017-01-05T21:35:04.198Z,-4.6
2017-01-05T21:40:04.522Z,-4.5
2017-01-05T21:45:04.519Z,-4.0
2017-01-05T21:50:04.380Z,-4.5
2017-01-05T21:55:04.354Z,-4.5
2017-01-05T22:00:04.493Z,-4.5
2017-01-05T22:05:04.311Z,-4.5
2017-01-05T22:10:04.563Z,-4.9
2017-01-05T22:15:04.332Z,-5.1
2017-01-05T22:20:04.393Z,-5.1
2017-01-05T22:25:04.600Z,-5.1
2017-01-05T22:30:05.034Z,-5.4
2017-01-05T22:35:04.745Z,-5.4
2017-01-05T22:40:04.837Z,-5.4
2017-01-05T22:45:04.561Z,-5.5
2017-01-05T22:50:04.215Z,-5.4
2017-01-05T22:55:03.949Z,-5.4
2017-01-05T23:00:04.173Z,-5.4
2017-01-05T23:05:04.087Z,-5.1
2017-01-05T23:10:04.287Z,-5.4
2017-01-05T23:15:04.310Z,-5.1
2017-01-05T23:20:04.374Z,-5.4
2017-01-05T23:25:04.414Z,-5.4
2017-01-05T23:30:04.630Z,-5.4
2017-01-05T23:35:04.779Z,-5.4
2017-01-05T23:40:04.967Z,-5.4
2017-01-05T23:45:05.024Z,-5.5
2017-01-05T23:50:04.763Z,-5.5
2017-01-05T23:55:04.805Z,-5.5
